sensor_id;sensor_type;location;lat;lon;timestamp;P1;durP1;ratioP1;P2;durP2;ratioP2
9722;SDS011;4900;49.306;8.500;2024-02-23T00:01:30;0.90;;;0.73;;
9722;SDS011;4900;49.306;8.500;2024-02-23T00:03:55;1.37;;;1.00;;
9722;SDS011;4900;49.306;8.500;2024-02-23T00:06:21;3.47;;;1.00;;
9722;SDS011;4900;49.306;8.500;2024-02-23T00:08:48;3.13;;;0.97;;
9722;SDS011;4900;49.306;8.500;2024-02-23T00:11:13;1.70;;;0.90;;
9722;SDS011;4900;49.306;8.500;2024-02-23T00:13:39;1.70;;;1.10;;
9722;SDS011;4900;49.306;8.500;2024-02-23T00:16:04;2.80;;;0.90;;
9722;SDS011;4900;49.306;8.500;2024-02-23T00:18:30;2.07;;;0.87;;
9722;SDS011;4900;49.306;8.500;2024-02-23T00:20:56;2.30;;;1.20;;
9722;SDS011;4900;49.306;8.500;2024-02-23T00:23:22;1.77;;;1.00;;
9722;SDS011;4900;49.306;8.500;2024-02-23T00:25:47;1.47;;;1.10;;
9722;SDS011;4900;49.306;8.500;2024-02-23T00:28:13;2.37;;;0.90;;
9722;SDS011;4900;49.306;8.500;2024-02-23T00:30:38;2.00;;;0.80;;
9722;SDS011;4900;49.306;8.500;2024-02-23T00:33:04;1.90;;;0.90;;
9722;SDS011;4900;49.306;8.500;2024-02-23T00:35:30;1.60;;;1.00;;
9722;SDS011;4900;49.306;8.500;2024-02-23T00:37:55;1.80;;;0.80;;
9722;SDS011;4900;49.306;8.500;2024-02-23T00:40:20;1.70;;;1.03;;
9722;SDS011;4900;49.306;8.500;2024-02-23T00:42:48;1.80;;;1.03;;
9722;SDS011;4900;49.306;8.500;2024-02-23T00:45:13;2.13;;;0.93;;
9722;SDS011;4900;49.306;8.500;2024-02-23T00:47:39;1.60;;;0.97;;
9722;SDS011;4900;49.306;8.500;2024-02-23T00:50:05;2.17;;;1.07;;
9722;SDS011;4900;49.306;8.500;2024-02-23T00:52:30;2.27;;;1.00;;
9722;SDS011;4900;49.306;8.500;2024-02-23T00:54:57;3.40;;;1.10;;
9722;SDS011;4900;49.306;8.500;2024-02-23T00:57:22;2.33;;;0.93;;
9722;SDS011;4900;49.306;8.500;2024-02-23T00:59:52;2.87;;;1.13;;
9722;SDS011;4900;49.306;8.500;2024-02-23T01:02:17;4.23;;;1.10;;
9722;SDS011;4900;49.306;8.500;2024-02-23T01:04:43;1.93;;;1.10;;
9722;SDS011;4900;49.306;8.500;2024-02-23T01:07:08;2.23;;;1.13;;
9722;SDS011;4900;49.306;8.500;2024-02-23T01:09:34;3.27;;;1.20;;
9722;SDS011;4900;49.306;8.500;2024-02-23T01:12:00;3.20;;;1.20;;
9722;SDS011;4900;49.306;8.500;2024-02-23T01:14:25;2.13;;;1.30;;
9722;SDS011;4900;49.306;8.500;2024-02-23T01:16:50;3.37;;;1.10;;
9722;SDS011;4900;49.306;8.500;2024-02-23T01:19:16;3.43;;;1.00;;
9722;SDS011;4900;49.306;8.500;2024-02-23T01:21:41;3.33;;;1.30;;
9722;SDS011;4900;49.306;8.500;2024-02-23T01:24:07;2.23;;;1.10;;
9722;SDS011;4900;49.306;8.500;2024-02-23T01:26:32;3.07;;;1.33;;
9722;SDS011;4900;49.306;8.500;2024-02-23T01:28:58;3.03;;;1.13;;
9722;SDS011;4900;49.306;8.500;2024-02-23T01:31:24;2.83;;;1.20;;
9722;SDS011;4900;49.306;8.500;2024-02-23T01:33:49;3.47;;;1.20;;
9722;SDS011;4900;49.306;8.500;2024-02-23T01:36:16;1.63;;;1.00;;
9722;SDS011;4900;49.306;8.500;2024-02-23T01:38:43;2.40;;;1.03;;
9722;SDS011;4900;49.306;8.500;2024-02-23T01:41:08;3.03;;;1.10;;
9722;SDS011;4900;49.306;8.500;2024-02-23T01:43:34;5.03;;;1.20;;
9722;SDS011;4900;49.306;8.500;2024-02-23T01:45:59;3.03;;;1.20;;
9722;SDS011;4900;49.306;8.500;2024-02-23T01:48:25;1.97;;;0.97;;
9722;SDS011;4900;49.306;8.500;2024-02-23T01:50:52;3.30;;;1.20;;
9722;SDS011;4900;49.306;8.500;2024-02-23T01:53:19;3.00;;;1.20;;
9722;SDS011;4900;49.306;8.500;2024-02-23T01:55:46;1.70;;;1.10;;
9722;SDS011;4900;49.306;8.500;2024-02-23T01:58:12;3.90;;;1.30;;
9722;SDS011;4900;49.306;8.500;2024-02-23T02:00:39;2.80;;;1.17;;
9722;SDS011;4900;49.306;8.500;2024-02-23T02:03:04;3.80;;;1.10;;
9722;SDS011;4900;49.306;8.500;2024-02-23T02:05:30;3.20;;;1.00;;
9722;SDS011;4900;49.306;8.500;2024-02-23T02:07:55;3.13;;;1.20;;
9722;SDS011;4900;49.306;8.500;2024-02-23T02:10:24;1.80;;;0.97;;
9722;SDS011;4900;49.306;8.500;2024-02-23T02:12:51;2.73;;;1.30;;
9722;SDS011;4900;49.306;8.500;2024-02-23T02:15:17;2.87;;;1.20;;
9722;SDS011;4900;49.306;8.500;2024-02-23T02:17:42;3.50;;;1.00;;
9722;SDS011;4900;49.306;8.500;2024-02-23T02:20:12;2.87;;;1.20;;
9722;SDS011;4900;49.306;8.500;2024-02-23T02:22:38;3.80;;;1.30;;
9722;SDS011;4900;49.306;8.500;2024-02-23T02:25:05;1.20;;;0.90;;
9722;SDS011;4900;49.306;8.500;2024-02-23T02:27:31;1.90;;;1.03;;
9722;SDS011;4900;49.306;8.500;2024-02-23T02:29:57;3.80;;;1.20;;
9722;SDS011;4900;49.306;8.500;2024-02-23T02:32:22;2.17;;;1.17;;
9722;SDS011;4900;49.306;8.500;2024-02-23T02:34:48;3.87;;;1.00;;
9722;SDS011;4900;49.306;8.500;2024-02-23T02:37:13;2.37;;;1.00;;
9722;SDS011;4900;49.306;8.500;2024-02-23T02:39:39;3.57;;;1.03;;
9722;SDS011;4900;49.306;8.500;2024-02-23T02:42:04;3.30;;;1.37;;
9722;SDS011;4900;49.306;8.500;2024-02-23T02:44:30;2.53;;;1.30;;
9722;SDS011;4900;49.306;8.500;2024-02-23T02:46:56;3.43;;;1.27;;
9722;SDS011;4900;49.306;8.500;2024-02-23T02:49:23;3.90;;;1.23;;
9722;SDS011;4900;49.306;8.500;2024-02-23T02:51:50;4.80;;;1.27;;
9722;SDS011;4900;49.306;8.500;2024-02-23T02:54:15;2.70;;;1.20;;
9722;SDS011;4900;49.306;8.500;2024-02-23T02:56:51;3.03;;;1.20;;
9722;SDS011;4900;49.306;8.500;2024-02-23T02:59:19;4.10;;;1.40;;
9722;SDS011;4900;49.306;8.500;2024-02-23T03:01:45;2.70;;;1.00;;
9722;SDS011;4900;49.306;8.500;2024-02-23T03:04:14;4.43;;;1.30;;
9722;SDS011;4900;49.306;8.500;2024-02-23T03:06:39;2.90;;;1.10;;
9722;SDS011;4900;49.306;8.500;2024-02-23T03:09:05;4.37;;;1.40;;
9722;SDS011;4900;49.306;8.500;2024-02-23T03:11:30;1.87;;;1.00;;
9722;SDS011;4900;49.306;8.500;2024-02-23T03:13:56;3.27;;;1.00;;
9722;SDS011;4900;49.306;8.500;2024-02-23T03:16:21;2.13;;;1.20;;
9722;SDS011;4900;49.306;8.500;2024-02-23T03:18:48;4.53;;;1.30;;
9722;SDS011;4900;49.306;8.500;2024-02-23T03:21:14;1.77;;;1.00;;
9722;SDS011;4900;49.306;8.500;2024-02-23T03:23:40;2.83;;;1.13;;
9722;SDS011;4900;49.306;8.500;2024-02-23T03:26:06;1.77;;;1.00;;
9722;SDS011;4900;49.306;8.500;2024-02-23T03:28:32;3.23;;;1.30;;
9722;SDS011;4900;49.306;8.500;2024-02-23T03:30:58;3.50;;;1.07;;
9722;SDS011;4900;49.306;8.500;2024-02-23T03:33:24;2.80;;;1.10;;
9722;SDS011;4900;49.306;8.500;2024-02-23T03:35:50;2.83;;;1.00;;
9722;SDS011;4900;49.306;8.500;2024-02-23T03:38:15;4.33;;;1.30;;
9722;SDS011;4900;49.306;8.500;2024-02-23T03:40:41;4.27;;;1.20;;
9722;SDS011;4900;49.306;8.500;2024-02-23T03:43:06;1.40;;;1.00;;
9722;SDS011;4900;49.306;8.500;2024-02-23T03:45:31;3.37;;;1.20;;
9722;SDS011;4900;49.306;8.500;2024-02-23T03:47:57;2.40;;;1.00;;
9722;SDS011;4900;49.306;8.500;2024-02-23T03:50:23;1.93;;;1.10;;
9722;SDS011;4900;49.306;8.500;2024-02-23T03:52:49;4.23;;;1.10;;
9722;SDS011;4900;49.306;8.500;2024-02-23T03:55:15;1.10;;;0.90;;
9722;SDS011;4900;49.306;8.500;2024-02-23T03:57:40;2.13;;;0.93;;
9722;SDS011;4900;49.306;8.500;2024-02-23T04:00:07;3.73;;;1.20;;
9722;SDS011;4900;49.306;8.500;2024-02-23T04:02:34;3.73;;;1.10;;
9722;SDS011;4900;49.306;8.500;2024-02-23T04:05:00;4.57;;;1.57;;
9722;SDS011;4900;49.306;8.500;2024-02-23T04:07:26;1.83;;;1.10;;
9722;SDS011;4900;49.306;8.500;2024-02-23T04:09:51;3.00;;;1.10;;
9722;SDS011;4900;49.306;8.500;2024-02-23T04:12:20;2.93;;;1.50;;
9722;SDS011;4900;49.306;8.500;2024-02-23T04:14:46;2.93;;;1.20;;
9722;SDS011;4900;49.306;8.500;2024-02-23T04:17:12;1.20;;;0.93;;
9722;SDS011;4900;49.306;8.500;2024-02-23T04:19:38;2.50;;;1.10;;
9722;SDS011;4900;49.306;8.500;2024-02-23T04:22:06;2.53;;;1.00;;
9722;SDS011;4900;49.306;8.500;2024-02-23T04:24:36;3.43;;;1.30;;
9722;SDS011;4900;49.306;8.500;2024-02-23T04:27:03;3.47;;;1.10;;
9722;SDS011;4900;49.306;8.500;2024-02-23T04:29:29;3.43;;;1.40;;
9722;SDS011;4900;49.306;8.500;2024-02-23T04:31:54;3.10;;;1.30;;
9722;SDS011;4900;49.306;8.500;2024-02-23T04:34:20;4.50;;;1.50;;
9722;SDS011;4900;49.306;8.500;2024-02-23T04:36:45;3.83;;;1.47;;
9722;SDS011;4900;49.306;8.500;2024-02-23T04:39:11;2.60;;;1.13;;
9722;SDS011;4900;49.306;8.500;2024-02-23T04:41:36;1.60;;;1.10;;
9722;SDS011;4900;49.306;8.500;2024-02-23T04:44:02;2.67;;;1.10;;
9722;SDS011;4900;49.306;8.500;2024-02-23T04:46:27;2.83;;;1.27;;
9722;SDS011;4900;49.306;8.500;2024-02-23T04:48:53;3.27;;;1.20;;
9722;SDS011;4900;49.306;8.500;2024-02-23T04:51:18;1.03;;;0.90;;
9722;SDS011;4900;49.306;8.500;2024-02-23T04:53:44;3.93;;;1.27;;
9722;SDS011;4900;49.306;8.500;2024-02-23T04:56:09;2.20;;;1.10;;
9722;SDS011;4900;49.306;8.500;2024-02-23T04:58:35;3.53;;;1.20;;
9722;SDS011;4900;49.306;8.500;2024-02-23T05:01:01;2.40;;;1.20;;
9722;SDS011;4900;49.306;8.500;2024-02-23T05:03:28;3.03;;;1.20;;
9722;SDS011;4900;49.306;8.500;2024-02-23T05:05:54;3.00;;;1.30;;
9722;SDS011;4900;49.306;8.500;2024-02-23T05:08:19;3.03;;;1.20;;
9722;SDS011;4900;49.306;8.500;2024-02-23T05:10:46;1.30;;;1.07;;
9722;SDS011;4900;49.306;8.500;2024-02-23T05:13:12;1.00;;;0.90;;
9722;SDS011;4900;49.306;8.500;2024-02-23T05:15:37;2.90;;;1.10;;
9722;SDS011;4900;49.306;8.500;2024-02-23T05:18:03;2.07;;;1.10;;
9722;SDS011;4900;49.306;8.500;2024-02-23T05:20:28;4.63;;;1.07;;
9722;SDS011;4900;49.306;8.500;2024-02-23T05:22:54;1.93;;;1.10;;
9722;SDS011;4900;49.306;8.500;2024-02-23T05:25:19;3.87;;;1.20;;
9722;SDS011;4900;49.306;8.500;2024-02-23T05:27:45;2.37;;;1.20;;
9722;SDS011;4900;49.306;8.500;2024-02-23T05:30:11;2.73;;;1.10;;
9722;SDS011;4900;49.306;8.500;2024-02-23T05:32:37;3.07;;;1.20;;
9722;SDS011;4900;49.306;8.500;2024-02-23T05:35:02;2.30;;;1.10;;
9722;SDS011;4900;49.306;8.500;2024-02-23T05:37:28;3.93;;;1.27;;
9722;SDS011;4900;49.306;8.500;2024-02-23T05:39:54;1.70;;;1.20;;
9722;SDS011;4900;49.306;8.500;2024-02-23T05:42:25;3.20;;;1.17;;
9722;SDS011;4900;49.306;8.500;2024-02-23T05:44:51;1.63;;;1.10;;
9722;SDS011;4900;49.306;8.500;2024-02-23T05:47:16;3.30;;;1.20;;
9722;SDS011;4900;49.306;8.500;2024-02-23T05:49:42;2.23;;;1.30;;
9722;SDS011;4900;49.306;8.500;2024-02-23T05:52:08;1.57;;;0.80;;
9722;SDS011;4900;49.306;8.500;2024-02-23T05:54:34;1.77;;;0.97;;
9722;SDS011;4900;49.306;8.500;2024-02-23T05:57:00;2.60;;;1.20;;
9722;SDS011;4900;49.306;8.500;2024-02-23T05:59:26;2.00;;;1.07;;
9722;SDS011;4900;49.306;8.500;2024-02-23T06:01:52;1.90;;;1.30;;
9722;SDS011;4900;49.306;8.500;2024-02-23T06:04:21;3.03;;;1.10;;
9722;SDS011;4900;49.306;8.500;2024-02-23T06:06:47;2.33;;;0.90;;
9722;SDS011;4900;49.306;8.500;2024-02-23T06:09:16;2.50;;;0.97;;
9722;SDS011;4900;49.306;8.500;2024-02-23T06:11:41;3.90;;;1.37;;
9722;SDS011;4900;49.306;8.500;2024-02-23T06:14:07;1.47;;;0.90;;
9722;SDS011;4900;49.306;8.500;2024-02-23T06:16:33;3.33;;;1.20;;
9722;SDS011;4900;49.306;8.500;2024-02-23T06:18:58;2.57;;;1.30;;
9722;SDS011;4900;49.306;8.500;2024-02-23T06:21:24;2.50;;;1.30;;
9722;SDS011;4900;49.306;8.500;2024-02-23T06:23:49;2.40;;;1.30;;
9722;SDS011;4900;49.306;8.500;2024-02-23T06:26:15;2.53;;;1.20;;
9722;SDS011;4900;49.306;8.500;2024-02-23T06:28:40;2.10;;;1.40;;
9722;SDS011;4900;49.306;8.500;2024-02-23T06:31:09;2.27;;;1.20;;
9722;SDS011;4900;49.306;8.500;2024-02-23T06:33:34;2.23;;;1.10;;
9722;SDS011;4900;49.306;8.500;2024-02-23T06:36:00;4.00;;;1.20;;
9722;SDS011;4900;49.306;8.500;2024-02-23T06:38:25;2.30;;;1.10;;
9722;SDS011;4900;49.306;8.500;2024-02-23T06:40:51;4.43;;;1.20;;
9722;SDS011;4900;49.306;8.500;2024-02-23T06:43:18;3.03;;;1.50;;
9722;SDS011;4900;49.306;8.500;2024-02-23T06:45:44;3.53;;;1.33;;
9722;SDS011;4900;49.306;8.500;2024-02-23T06:48:09;1.87;;;1.10;;
9722;SDS011;4900;49.306;8.500;2024-02-23T06:50:35;2.40;;;1.10;;
9722;SDS011;4900;49.306;8.500;2024-02-23T06:53:00;5.50;;;1.50;;
9722;SDS011;4900;49.306;8.500;2024-02-23T06:55:27;2.47;;;1.20;;
9722;SDS011;4900;49.306;8.500;2024-02-23T06:57:53;3.37;;;1.30;;
9722;SDS011;4900;49.306;8.500;2024-02-23T07:00:19;3.67;;;1.40;;
9722;SDS011;4900;49.306;8.500;2024-02-23T07:02:46;3.00;;;1.40;;
9722;SDS011;4900;49.306;8.500;2024-02-23T07:05:12;2.77;;;1.33;;
9722;SDS011;4900;49.306;8.500;2024-02-23T07:07:38;2.90;;;1.40;;
9722;SDS011;4900;49.306;8.500;2024-02-23T07:10:05;2.90;;;1.40;;
9722;SDS011;4900;49.306;8.500;2024-02-23T07:12:31;3.40;;;1.40;;
9722;SDS011;4900;49.306;8.500;2024-02-23T07:14:57;3.90;;;1.30;;
9722;SDS011;4900;49.306;8.500;2024-02-23T07:17:23;2.07;;;1.10;;
9722;SDS011;4900;49.306;8.500;2024-02-23T07:19:49;3.97;;;1.50;;
9722;SDS011;4900;49.306;8.500;2024-02-23T07:22:15;3.67;;;1.20;;
9722;SDS011;4900;49.306;8.500;2024-02-23T07:24:43;1.77;;;1.10;;
9722;SDS011;4900;49.306;8.500;2024-02-23T07:27:08;2.17;;;1.00;;
9722;SDS011;4900;49.306;8.500;2024-02-23T07:29:34;2.10;;;1.20;;
9722;SDS011;4900;49.306;8.500;2024-02-23T07:31:59;3.23;;;1.33;;
9722;SDS011;4900;49.306;8.500;2024-02-23T07:34:25;3.27;;;1.20;;
9722;SDS011;4900;49.306;8.500;2024-02-23T07:36:54;4.23;;;1.20;;
9722;SDS011;4900;49.306;8.500;2024-02-23T07:39:20;4.03;;;1.67;;
9722;SDS011;4900;49.306;8.500;2024-02-23T07:41:47;2.37;;;1.30;;
9722;SDS011;4900;49.306;8.500;2024-02-23T07:44:12;3.63;;;1.20;;
9722;SDS011;4900;49.306;8.500;2024-02-23T07:46:37;4.20;;;1.33;;
9722;SDS011;4900;49.306;8.500;2024-02-23T07:49:06;1.80;;;1.17;;
9722;SDS011;4900;49.306;8.500;2024-02-23T07:51:32;3.37;;;1.23;;
9722;SDS011;4900;49.306;8.500;2024-02-23T07:53:57;3.20;;;1.40;;
9722;SDS011;4900;49.306;8.500;2024-02-23T07:56:23;3.47;;;1.30;;
9722;SDS011;4900;49.306;8.500;2024-02-23T07:58:48;2.77;;;1.23;;
9722;SDS011;4900;49.306;8.500;2024-02-23T08:01:14;2.27;;;1.10;;
9722;SDS011;4900;49.306;8.500;2024-02-23T08:03:39;3.47;;;1.37;;
9722;SDS011;4900;49.306;8.500;2024-02-23T08:06:05;5.17;;;1.43;;
9722;SDS011;4900;49.306;8.500;2024-02-23T08:08:31;3.67;;;1.50;;
9722;SDS011;4900;49.306;8.500;2024-02-23T08:10:59;5.90;;;1.67;;
9722;SDS011;4900;49.306;8.500;2024-02-23T08:13:25;3.20;;;1.30;;
9722;SDS011;4900;49.306;8.500;2024-02-23T08:15:51;5.47;;;1.27;;
9722;SDS011;4900;49.306;8.500;2024-02-23T08:18:16;2.50;;;1.30;;
9722;SDS011;4900;49.306;8.500;2024-02-23T08:20:42;2.87;;;1.30;;
9722;SDS011;4900;49.306;8.500;2024-02-23T08:23:07;2.97;;;1.10;;
9722;SDS011;4900;49.306;8.500;2024-02-23T08:25:34;2.90;;;1.17;;
9722;SDS011;4900;49.306;8.500;2024-02-23T08:27:59;3.37;;;1.10;;
9722;SDS011;4900;49.306;8.500;2024-02-23T08:30:24;3.60;;;1.30;;
9722;SDS011;4900;49.306;8.500;2024-02-23T08:32:50;2.33;;;1.10;;
9722;SDS011;4900;49.306;8.500;2024-02-23T08:35:15;3.50;;;1.10;;
9722;SDS011;4900;49.306;8.500;2024-02-23T08:37:41;5.70;;;1.43;;
9722;SDS011;4900;49.306;8.500;2024-02-23T08:40:08;3.37;;;1.17;;
9722;SDS011;4900;49.306;8.500;2024-02-23T08:42:34;3.83;;;1.27;;
9722;SDS011;4900;49.306;8.500;2024-02-23T08:44:59;4.93;;;1.30;;
9722;SDS011;4900;49.306;8.500;2024-02-23T08:47:25;2.47;;;1.10;;
9722;SDS011;4900;49.306;8.500;2024-02-23T08:49:56;4.07;;;1.03;;
9722;SDS011;4900;49.306;8.500;2024-02-23T08:52:22;3.80;;;1.40;;
9722;SDS011;4900;49.306;8.500;2024-02-23T08:54:48;2.60;;;1.13;;
9722;SDS011;4900;49.306;8.500;2024-02-23T08:57:13;1.97;;;1.10;;
9722;SDS011;4900;49.306;8.500;2024-02-23T08:59:42;3.77;;;1.43;;
9722;SDS011;4900;49.306;8.500;2024-02-23T09:02:08;2.90;;;1.30;;
9722;SDS011;4900;49.306;8.500;2024-02-23T09:04:34;2.63;;;1.20;;
9722;SDS011;4900;49.306;8.500;2024-02-23T09:07:00;4.63;;;1.30;;
9722;SDS011;4900;49.306;8.500;2024-02-23T09:09:26;2.65;;;1.20;;
9722;SDS011;4900;49.306;8.500;2024-02-23T09:11:51;2.25;;;1.10;;
9722;SDS011;4900;49.306;8.500;2024-02-23T09:14:17;2.85;;;1.38;;
9722;SDS011;4900;49.306;8.500;2024-02-23T09:16:42;3.65;;;1.25;;
9722;SDS011;4900;49.306;8.500;2024-02-23T09:19:08;3.00;;;1.30;;
9722;SDS011;4900;49.306;8.500;2024-02-23T09:21:33;2.42;;;1.33;;
9722;SDS011;4900;49.306;8.500;2024-02-23T09:23:59;2.92;;;1.50;;
9722;SDS011;4900;49.306;8.500;2024-02-23T09:26:24;3.22;;;1.30;;
9722;SDS011;4900;49.306;8.500;2024-02-23T09:28:49;3.30;;;1.20;;
9722;SDS011;4900;49.306;8.500;2024-02-23T09:31:15;3.13;;;1.30;;
9722;SDS011;4900;49.306;8.500;2024-02-23T09:33:40;1.90;;;1.08;;
9722;SDS011;4900;49.306;8.500;2024-02-23T09:36:06;2.22;;;1.20;;
9722;SDS011;4900;49.306;8.500;2024-02-23T09:38:31;3.75;;;1.33;;
9722;SDS011;4900;49.306;8.500;2024-02-23T09:40:57;4.35;;;1.50;;
9722;SDS011;4900;49.306;8.500;2024-02-23T09:43:25;3.50;;;1.23;;
9722;SDS011;4900;49.306;8.500;2024-02-23T09:45:54;3.85;;;1.45;;
9722;SDS011;4900;49.306;8.500;2024-02-23T09:48:22;3.70;;;1.40;;
9722;SDS011;4900;49.306;8.500;2024-02-23T09:50:49;4.38;;;1.40;;
9722;SDS011;4900;49.306;8.500;2024-02-23T09:53:14;2.67;;;1.15;;
9722;SDS011;4900;49.306;8.500;2024-02-23T09:55:42;2.92;;;1.17;;
9722;SDS011;4900;49.306;8.500;2024-02-23T09:58:10;2.13;;;1.20;;
9722;SDS011;4900;49.306;8.500;2024-02-23T10:00:38;4.97;;;1.40;;
9722;SDS011;4900;49.306;8.500;2024-02-23T10:03:04;1.48;;;1.20;;
9722;SDS011;4900;49.306;8.500;2024-02-23T10:05:31;3.10;;;1.30;;
9722;SDS011;4900;49.306;8.500;2024-02-23T10:07:59;5.53;;;1.30;;
9722;SDS011;4900;49.306;8.500;2024-02-23T10:10:34;4.97;;;1.33;;
9722;SDS011;4900;49.306;8.500;2024-02-23T10:13:00;4.13;;;1.45;;
9722;SDS011;4900;49.306;8.500;2024-02-23T10:15:26;3.40;;;1.10;;
9722;SDS011;4900;49.306;8.500;2024-02-23T10:17:53;5.65;;;2.00;;
9722;SDS011;4900;49.306;8.500;2024-02-23T10:20:19;3.70;;;1.40;;
9722;SDS011;4900;49.306;8.500;2024-02-23T10:22:45;4.95;;;1.38;;
9722;SDS011;4900;49.306;8.500;2024-02-23T10:25:13;4.32;;;1.50;;
9722;SDS011;4900;49.306;8.500;2024-02-23T10:27:41;4.35;;;1.48;;
9722;SDS011;4900;49.306;8.500;2024-02-23T10:30:09;3.17;;;1.70;;
9722;SDS011;4900;49.306;8.500;2024-02-23T10:32:39;3.40;;;1.50;;
9722;SDS011;4900;49.306;8.500;2024-02-23T10:35:07;3.20;;;1.42;;
9722;SDS011;4900;49.306;8.500;2024-02-23T10:37:38;4.57;;;1.60;;
9722;SDS011;4900;49.306;8.500;2024-02-23T10:40:03;3.80;;;1.50;;
9722;SDS011;4900;49.306;8.500;2024-02-23T10:42:34;4.95;;;1.55;;
9722;SDS011;4900;49.306;8.500;2024-02-23T10:45:03;2.70;;;1.33;;
9722;SDS011;4900;49.306;8.500;2024-02-23T10:47:30;2.95;;;1.30;;
9722;SDS011;4900;49.306;8.500;2024-02-23T10:49:58;2.80;;;1.45;;
9722;SDS011;4900;49.306;8.500;2024-02-23T10:52:26;3.35;;;1.40;;
9722;SDS011;4900;49.306;8.500;2024-02-23T10:54:51;3.60;;;1.50;;
9722;SDS011;4900;49.306;8.500;2024-02-23T10:57:18;3.50;;;1.48;;
9722;SDS011;4900;49.306;8.500;2024-02-23T10:59:46;3.28;;;1.70;;
9722;SDS011;4900;49.306;8.500;2024-02-23T11:02:13;2.83;;;1.65;;
9722;SDS011;4900;49.306;8.500;2024-02-23T11:04:45;3.47;;;1.50;;
9722;SDS011;4900;49.306;8.500;2024-02-23T11:07:17;3.40;;;1.50;;
9722;SDS011;4900;49.306;8.500;2024-02-23T11:09:54;2.35;;;1.50;;
9722;SDS011;4900;49.306;8.500;2024-02-23T11:12:23;3.05;;;1.50;;
9722;SDS011;4900;49.306;8.500;2024-02-23T11:14:50;4.05;;;1.40;;
9722;SDS011;4900;49.306;8.500;2024-02-23T11:17:19;3.17;;;1.52;;
9722;SDS011;4900;49.306;8.500;2024-02-23T11:19:46;3.60;;;1.63;;
9722;SDS011;4900;49.306;8.500;2024-02-23T11:22:14;3.85;;;1.55;;
9722;SDS011;4900;49.306;8.500;2024-02-23T11:24:42;3.40;;;1.60;;
9722;SDS011;4900;49.306;8.500;2024-02-23T11:27:15;3.67;;;1.40;;
9722;SDS011;4900;49.306;8.500;2024-02-23T11:29:43;3.55;;;1.70;;
9722;SDS011;4900;49.306;8.500;2024-02-23T11:32:14;3.22;;;1.75;;
9722;SDS011;4900;49.306;8.500;2024-02-23T11:34:54;2.88;;;1.55;;
9722;SDS011;4900;49.306;8.500;2024-02-23T11:37:23;3.38;;;1.50;;
9722;SDS011;4900;49.306;8.500;2024-02-23T11:39:48;2.50;;;1.30;;
9722;SDS011;4900;49.306;8.500;2024-02-23T11:42:14;3.00;;;1.23;;
9722;SDS011;4900;49.306;8.500;2024-02-23T11:44:41;2.92;;;1.40;;
9722;SDS011;4900;49.306;8.500;2024-02-23T11:47:07;3.72;;;1.33;;
9722;SDS011;4900;49.306;8.500;2024-02-23T11:49:33;3.00;;;1.33;;
9722;SDS011;4900;49.306;8.500;2024-02-23T11:51:59;3.92;;;1.90;;
9722;SDS011;4900;49.306;8.500;2024-02-23T11:54:25;2.72;;;1.27;;
9722;SDS011;4900;49.306;8.500;2024-02-23T11:56:51;2.45;;;1.33;;
9722;SDS011;4900;49.306;8.500;2024-02-23T11:59:18;2.90;;;1.33;;
9722;SDS011;4900;49.306;8.500;2024-02-23T12:01:45;2.28;;;1.20;;
9722;SDS011;4900;49.306;8.500;2024-02-23T12:04:12;2.85;;;1.30;;
9722;SDS011;4900;49.306;8.500;2024-02-23T12:06:39;2.70;;;1.45;;
9722;SDS011;4900;49.306;8.500;2024-02-23T12:09:05;3.13;;;1.60;;
9722;SDS011;4900;49.306;8.500;2024-02-23T12:11:31;2.35;;;1.40;;
9722;SDS011;4900;49.306;8.500;2024-02-23T12:13:57;1.92;;;1.30;;
9722;SDS011;4900;49.306;8.500;2024-02-23T12:16:22;4.03;;;1.50;;
9722;SDS011;4900;49.306;8.500;2024-02-23T12:18:54;3.40;;;1.60;;
9722;SDS011;4900;49.306;8.500;2024-02-23T12:21:20;4.30;;;1.40;;
9722;SDS011;4900;49.306;8.500;2024-02-23T12:23:48;2.90;;;1.50;;
9722;SDS011;4900;49.306;8.500;2024-02-23T12:26:16;3.28;;;1.30;;
9722;SDS011;4900;49.306;8.500;2024-02-23T12:28:43;2.60;;;1.40;;
9722;SDS011;4900;49.306;8.500;2024-02-23T12:31:10;2.15;;;1.50;;
9722;SDS011;4900;49.306;8.500;2024-02-23T12:33:37;3.15;;;1.35;;
9722;SDS011;4900;49.306;8.500;2024-02-23T12:36:06;3.35;;;1.40;;
9722;SDS011;4900;49.306;8.500;2024-02-23T12:38:33;4.10;;;1.60;;
9722;SDS011;4900;49.306;8.500;2024-02-23T12:40:59;2.40;;;1.27;;
9722;SDS011;4900;49.306;8.500;2024-02-23T12:43:25;1.80;;;1.23;;
9722;SDS011;4900;49.306;8.500;2024-02-23T12:45:54;3.03;;;1.50;;
9722;SDS011;4900;49.306;8.500;2024-02-23T12:48:20;3.13;;;1.38;;
9722;SDS011;4900;49.306;8.500;2024-02-23T12:50:48;2.67;;;1.50;;
9722;SDS011;4900;49.306;8.500;2024-02-23T12:55:59;2.35;;;1.40;;
9722;SDS011;4900;49.306;8.500;2024-02-23T12:58:27;2.83;;;1.50;;
9722;SDS011;4900;49.306;8.500;2024-02-23T13:00:53;2.58;;;1.30;;
9722;SDS011;4900;49.306;8.500;2024-02-23T13:03:19;3.08;;;1.10;;
9722;SDS011;4900;49.306;8.500;2024-02-23T13:05:45;3.03;;;1.55;;
9722;SDS011;4900;49.306;8.500;2024-02-23T13:08:10;2.20;;;1.42;;
9722;SDS011;4900;49.306;8.500;2024-02-23T13:10:36;3.08;;;1.75;;
9722;SDS011;4900;49.306;8.500;2024-02-23T13:13:01;3.95;;;2.40;;
9722;SDS011;4900;49.306;8.500;2024-02-23T13:15:27;3.80;;;1.90;;
9722;SDS011;4900;49.306;8.500;2024-02-23T13:17:53;3.70;;;2.08;;
9722;SDS011;4900;49.306;8.500;2024-02-23T13:20:18;3.65;;;1.63;;
9722;SDS011;4900;49.306;8.500;2024-02-23T13:22:43;4.53;;;1.60;;
9722;SDS011;4900;49.306;8.500;2024-02-23T13:25:09;3.30;;;1.73;;
9722;SDS011;4900;49.306;8.500;2024-02-23T13:27:34;2.90;;;1.60;;
9722;SDS011;4900;49.306;8.500;2024-02-23T13:30:00;3.42;;;2.05;;
9722;SDS011;4900;49.306;8.500;2024-02-23T13:32:25;3.28;;;1.58;;
9722;SDS011;4900;49.306;8.500;2024-02-23T13:34:51;3.55;;;1.60;;
9722;SDS011;4900;49.306;8.500;2024-02-23T13:37:17;3.97;;;1.85;;
9722;SDS011;4900;49.306;8.500;2024-02-23T13:39:43;4.57;;;2.00;;
9722;SDS011;4900;49.306;8.500;2024-02-23T13:42:08;2.58;;;1.63;;
9722;SDS011;4900;49.306;8.500;2024-02-23T13:44:36;3.55;;;1.63;;
9722;SDS011;4900;49.306;8.500;2024-02-23T13:47:01;2.55;;;1.50;;
9722;SDS011;4900;49.306;8.500;2024-02-23T13:49:27;3.10;;;1.42;;
9722;SDS011;4900;49.306;8.500;2024-02-23T13:51:53;3.83;;;1.60;;
9722;SDS011;4900;49.306;8.500;2024-02-23T13:54:18;3.92;;;1.80;;
9722;SDS011;4900;49.306;8.500;2024-02-23T13:56:44;3.45;;;1.60;;
9722;SDS011;4900;49.306;8.500;2024-02-23T13:59:10;4.00;;;1.83;;
9722;SDS011;4900;49.306;8.500;2024-02-23T14:01:36;4.10;;;2.10;;
9722;SDS011;4900;49.306;8.500;2024-02-23T14:04:05;2.95;;;2.13;;
9722;SDS011;4900;49.306;8.500;2024-02-23T14:06:34;4.70;;;2.40;;
9722;SDS011;4900;49.306;8.500;2024-02-23T14:09:00;3.78;;;2.00;;
9722;SDS011;4900;49.306;8.500;2024-02-23T14:11:25;3.17;;;1.20;;
9722;SDS011;4900;49.306;8.500;2024-02-23T14:13:51;3.00;;;1.40;;
9722;SDS011;4900;49.306;8.500;2024-02-23T14:16:17;4.28;;;1.50;;
9722;SDS011;4900;49.306;8.500;2024-02-23T14:18:42;3.45;;;1.85;;
9722;SDS011;4900;49.306;8.500;2024-02-23T14:21:09;4.25;;;2.30;;
9722;SDS011;4900;49.306;8.500;2024-02-23T14:23:35;3.75;;;2.00;;
9722;SDS011;4900;49.306;8.500;2024-02-23T14:26:02;3.03;;;1.35;;
9722;SDS011;4900;49.306;8.500;2024-02-23T14:28:28;4.85;;;1.60;;
9722;SDS011;4900;49.306;8.500;2024-02-23T14:30:54;3.30;;;1.40;;
9722;SDS011;4900;49.306;8.500;2024-02-23T14:33:20;3.67;;;1.60;;
9722;SDS011;4900;49.306;8.500;2024-02-23T14:35:46;4.72;;;1.55;;
9722;SDS011;4900;49.306;8.500;2024-02-23T14:38:12;4.35;;;1.50;;
9722;SDS011;4900;49.306;8.500;2024-02-23T14:40:37;5.00;;;1.60;;
9722;SDS011;4900;49.306;8.500;2024-02-23T14:43:03;3.35;;;1.50;;
9722;SDS011;4900;49.306;8.500;2024-02-23T14:45:30;2.33;;;1.30;;
9722;SDS011;4900;49.306;8.500;2024-02-23T14:47:55;2.38;;;1.30;;
9722;SDS011;4900;49.306;8.500;2024-02-23T14:50:21;2.45;;;1.35;;
9722;SDS011;4900;49.306;8.500;2024-02-23T14:52:46;3.30;;;1.40;;
9722;SDS011;4900;49.306;8.500;2024-02-23T14:55:11;2.88;;;1.33;;
9722;SDS011;4900;49.306;8.500;2024-02-23T14:57:37;1.67;;;1.20;;
9722;SDS011;4900;49.306;8.500;2024-02-23T15:00:03;4.47;;;1.70;;
9722;SDS011;4900;49.306;8.500;2024-02-23T15:02:29;3.75;;;1.40;;
9722;SDS011;4900;49.306;8.500;2024-02-23T15:04:55;3.20;;;1.30;;
9722;SDS011;4900;49.306;8.500;2024-02-23T15:07:20;3.83;;;1.30;;
9722;SDS011;4900;49.306;8.500;2024-02-23T15:09:46;3.33;;;1.40;;
9722;SDS011;4900;49.306;8.500;2024-02-23T15:12:12;2.88;;;1.38;;